Time;durP1;ratioP1;P1;durP2;ratioP2;P2;SDS_P1;SDS_P2;PMS_P1;PMS_P2;Temp;Humidity;BMP_temperature;BMP_pressure;BME280_temperature;BME280_humidity;BME280_pressure;Samples;Min_cycle;Max_cycle;Signal;HPM_P1;HPM_P2
2021/11/06 12:46:39;;;;;;;;;;;;;;;13.66;100.00;98176.13;2092876;28;19921;-60
2021/11/06 12:49:10;;;;;;;18.50;7.40;;;;;;;17.82;90.49;98167.31;2083827;27;20624;-55
2021/11/06 12:50:20;;;;;;;11.23;6.73;;;;;;;;;;2084638;28;20025;-50
2021/11/06 12:51:21;;;;;;;14.25;6.55;;;;;;;;;;2087381;28;20032;-65
2021/11/06 12:52:23;;;;;;;28.48;6.35;;;;;;;;;;2085935;28;20096;-59
2021/11/06 12:53:28;;;;;;;10.57;5.72;;;;;;;;;;2087474;28;20013;-67
2021/11/06 12:54:28;;;;;;;13.80;5.83;;;;;;;;;;2086593;28;20025;-63
2021/11/06 12:55:29;;;;;;;33.15;5.30;;;;;;;;;;2082286;28;20025;-58
2021/11/06 12:57:36;;;;;;;19.35;13.23;;;;;;;;;;2096298;28;20726;-55
2021/11/06 12:58:38;;;;;;;19.95;12.30;;;;;;;;;;2086221;28;20399;-55
2021/11/06 12:59:45;;;;;;;20.15;12.50;;;;;;;;;;2088137;28;20135;-54
2021/11/06 13:00:45;;;;;;;20.73;12.82;;;;;;;;;;2074220;28;20024;-73
2021/11/06 13:02:04;;;;;;;21.67;13.27;;;;;;;9.25;79.32;98166.03;2096332;28;20406;-67
2021/11/06 13:03:07;;;;;;;23.67;12.73;;;;;;;8.90;81.05;98172.75;2097675;28;20034;-80
2021/11/06 13:04:15;;;;;;;21.67;12.57;;;;;;;8.71;81.92;98167.34;2061917;28;20112;-83
2021/11/06 13:05:16;;;;;;;22.33;13.27;;;;;;;8.30;82.75;98163.53;2078637;28;20037;-84
2021/11/06 13:06:25;;;;;;;24.60;14.63;;;;;;;7.87;84.05;98163.44;2072836;28;20046;-84
2021/11/06 13:07:26;;;;;;;25.92;14.65;;;;;;;7.65;85.55;98158.53;2075045;28;20026;-88
2021/11/06 13:08:27;;;;;;;23.58;14.15;;;;;;;7.51;86.79;98160.25;2080688;28;20022;-83
2021/11/06 13:09:29;;;;;;;25.77;15.00;;;;;;;7.21;88.16;98161.31;2080703;28;20063;-83
2021/11/06 13:10:29;;;;;;;26.92;14.65;;;;;;;7.03;89.15;98159.28;2076915;28;20075;-83
2021/11/06 13:11:50;;;;;;;24.83;14.70;;;;;;;6.88;90.65;98157.50;2074336;28;20034;-83
2021/11/06 13:13:17;;;;;;;24.77;13.65;;;;;;;6.68;91.75;98155.69;2078581;28;20032;-83
2021/11/06 13:14:38;;;;;;;25.10;14.13;;;;;;;6.57;92.94;98151.47;2076177;28;20022;-85
2021/11/06 13:15:43;;;;;;;29.08;15.35;;;;;;;6.47;93.60;98151.50;2072467;28;20531;-85
2021/11/06 13:17:06;;;;;;;29.33;14.93;;;;;;;6.40;94.46;98151.00;2076709;28;20034;-85
2021/11/06 13:18:14;;;;;;;25.67;14.50;;;;;;;6.33;94.97;98152.38;2079200;28;20018;-85
2021/11/06 13:19:37;;;;;;;27.63;14.98;;;;;;;6.26;95.55;98148.09;2073837;28;20271;-86
2021/11/06 13:20:38;;;;;;;55.25;27.55;;;;;;;6.23;95.88;98151.34;2075244;28;20017;-86
2021/11/06 13:21:42;;;;;;;34.38;17.55;;;;;;;6.20;96.60;98154.56;2072592;28;20456;-87
2021/11/06 13:22:52;;;;;;;35.97;17.50;;;;;;;6.20;96.87;98148.41;2073029;28;20081;-86
2021/11/06 13:23:56;;;;;;;137.10;63.30;;;;;;;6.20;97.26;98151.09;2073654;28;20080;-85
2021/11/06 13:24:59;;;;;;;74.85;42.97;;;;;;;6.17;97.61;98144.38;2072898;28;20029;-86
2021/11/06 13:26:00;;;;;;;59.47;32.08;;;;;;;6.14;98.14;98141.44;2069032;28;20026;-85
2021/11/06 13:27:00;;;;;;;38.37;19.60;;;;;;;6.16;98.44;98148.16;2064484;28;20228;-85
2021/11/06 13:28:11;;;;;;;31.27;15.30;;;;;;;6.13;97.72;98134.44;2072383;28;20112;-83
2021/11/06 13:29:21;;;;;;;49.08;24.30;;;;;;;6.11;97.60;98140.09;2085143;28;20056;-83
2021/11/06 13:30:29;;;;;;;90.15;45.25;;;;;;;6.20;97.89;98135.75;2080812;28;20029;-85
2021/11/06 13:31:29;;;;;;;59.42;33.03;;;;;;;6.12;97.86;98138.22;2082939;28;20028;-85
2021/11/06 13:32:29;;;;;;;70.87;42.93;;;;;;;6.10;98.27;98137.69;2076893;28;20056;-85
2021/11/06 13:33:39;;;;;;;72.50;37.90;;;;;;;6.16;98.33;98139.28;2072384;28;20030;-85
2021/11/06 13:34:39;;;;;;;46.13;22.48;;;;;;;6.20;98.23;98138.44;2072337;28;20037;-87
2021/11/06 13:35:46;;;;;;;37.10;18.50;;;;;;;6.17;98.19;98130.16;2072415;28;20026;-85
2021/11/06 13:36:46;;;;;;;31.30;16.80;;;;;;;6.12;98.29;98122.88;2080364;28;20026;-84
2021/11/06 13:38:24;;;;;;;33.63;16.58;;;;;;;6.09;98.33;98123.44;2076102;28;20021;-85
2021/11/06 13:39:25;;;;;;;36.33;17.70;;;;;;;6.06;98.44;98115.13;2073900;28;20033;-86
2021/11/06 13:40:25;;;;;;;34.00;16.60;;;;;;;6.00;98.69;98126.97;2069508;28;20371;-87
2021/11/06 13:41:31;;;;;;;35.60;17.73;;;;;;;6.01;99.04;98115.13;2067631;28;20014;-86
2021/11/06 13:42:31;;;;;;;32.83;16.60;;;;;;;6.00;99.04;98114.34;2072770;28;20124;-85
2021/11/06 13:43:43;;;;;;;31.60;16.50;;;;;;;5.98;99.06;98111.09;2072118;28;20030;-86
2021/11/06 13:44:43;;;;;;;34.80;15.85;;;;;;;6.03;99.24;98110.31;2072483;28;20369;-89
2021/11/06 13:46:04;;;;;;;31.23;16.47;;;;;;;5.99;99.33;98107.34;2076042;28;20084;-89
2021/11/06 13:47:06;;;;;;;30.58;15.32;;;;;;;5.96;99.49;98107.91;2079374;28;20026;-83
2021/11/06 13:48:06;;;;;;;34.10;15.98;;;;;;;5.95;99.79;98108.19;2080435;28;20026;-83
2021/11/06 13:49:17;;;;;;;31.27;15.67;;;;;;;5.92;100.00;98108.72;2079836;28;20029;-82
2021/11/06 13:50:22;;;;;;;30.45;15.25;;;;;;;5.91;100.00;98105.22;2073156;28;20484;-80
2021/11/06 13:51:22;;;;;;;32.13;15.80;;;;;;;5.89;100.00;98105.53;2071433;28;20500;-85
2021/11/06 13:52:23;;;;;;;30.05;15.93;;;;;;;5.89;100.00;98104.72;2072216;28;20377;-87
2021/11/06 13:53:26;;;;;;;33.43;16.57;;;;;;;5.88;100.00;98103.09;2080292;28;20053;-85
2021/11/06 13:54:28;;;;;;;31.85;15.85;;;;;;;5.90;100.00;98101.72;2065797;28;20022;-85
2021/11/06 13:55:29;;;;;;;31.58;16.58;;;;;;;5.90;100.00;98104.41;2072100;28;20037;-85
2021/11/06 13:56:48;;;;;;;30.90;16.07;;;;;;;5.91;100.00;98102.53;2066201;28;20034;-84
2021/11/06 13:57:50;;;;;;;31.00;15.40;;;;;;;5.90;100.00;98099.03;2072739;28;20029;-83
2021/11/06 13:58:50;;;;;;;33.33;16.73;;;;;;;5.89;100.00;98102.03;2077675;28;20032;-83
2021/11/06 13:59:54;;;;;;;32.60;17.00;;;;;;;5.89;100.00;98107.41;2075131;28;20117;-83
2021/11/06 14:00:55;;;;;;;30.92;15.88;;;;;;;5.90;100.00;98095.53;2078964;28;20372;-84
2021/11/06 14:01:56;;;;;;;31.63;16.13;;;;;;;5.89;100.00;98097.47;2062532;28;20130;-84
2021/11/06 14:02:58;;;;;;;32.88;16.58;;;;;;;5.87;100.00;98099.59;2075240;28;20065;-84
2021/11/06 14:03:58;;;;;;;32.42;16.38;;;;;;;5.86;100.00;98103.34;2089142;28;20033;-85
2021/11/06 14:05:10;;;;;;;33.20;16.07;;;;;;;5.83;100.00;98100.38;2088535;28;20021;-84
2021/11/06 14:06:10;;;;;;;33.22;17.00;;;;;;;5.85;100.00;98098.22;2075769;28;20026;-84
2021/11/06 14:07:13;;;;;;;34.77;17.30;;;;;;;5.98;100.00;98096.88;2081386;28;20018;-84
2021/11/06 14:08:15;;;;;;;31.25;16.17;;;;;;;5.93;100.00;98100.38;2074718;28;20495;-84
2021/11/06 14:09:17;;;;;;;31.98;16.20;;;;;;;5.90;100.00;98099.03;2079919;28;20048;-84
2021/11/06 14:10:23;;;;;;;33.45;16.23;;;;;;;6.03;100.00;98096.88;2077321;28;20028;-84
2021/11/06 14:11:23;;;;;;;31.60;15.95;;;;;;;5.97;100.00;98088.00;2087582;28;20144;-84
2021/11/06 14:12:40;;;;;;;33.93;16.53;;;;;;;5.96;100.00;98093.66;2088623;28;20021;-83
2021/11/06 14:13:53;;;;;;;32.22;15.90;;;;;;;5.90;100.00;98096.34;2079344;28;20022;-84
2021/11/06 14:14:54;;;;;;;34.50;16.73;;;;;;;5.92;100.00;98096.09;2071840;28;20438;-83
2021/11/06 14:15:55;;;;;;;35.72;16.65;;;;;;;5.98;100.00;98092.28;2081108;28;20033;-85
2021/11/06 14:17:07;;;;;;;33.70;16.73;;;;;;;5.96;100.00;98088.31;2092152;28;20029;-84
2021/11/06 14:18:11;;;;;;;33.42;17.25;;;;;;;5.94;100.00;98087.75;2086477;28;20085;-82
2021/11/06 14:19:15;;;;;;;33.80;17.10;;;;;;;5.90;100.00;98085.59;2082177;28;20079;-83
2021/11/06 14:20:18;;;;;;;33.07;16.30;;;;;;;5.89;100.00;98088.59;2077052;28;20541;-83
2021/11/06 14:21:25;;;;;;;31.65;16.65;;;;;;;5.87;100.00;98093.41;2082375;28;20278;-83
2021/11/06 14:22:30;;;;;;;32.38;16.00;;;;;;;5.87;100.00;98085.34;2075610;28;20044;-83
2021/11/06 14:23:37;;;;;;;33.63;17.23;;;;;;;5.90;100.00;98090.19;2075512;28;20392;-83
2021/11/06 14:24:37;;;;;;;37.95;19.05;;;;;;;5.90;100.00;98093.66;2076503;28;20021;-83
2021/11/06 14:25:42;;;;;;;37.10;19.23;;;;;;;5.93;100.00;98089.63;2074495;28;20113;-82
2021/11/06 14:26:45;;;;;;;33.28;16.55;;;;;;;5.93;100.00;98086.94;2085700;28;20033;-82
2021/11/06 14:28:01;;;;;;;35.65;17.60;;;;;;;5.95;100.00;98084.00;2087852;28;20036;-83
2021/11/06 14:29:07;;;;;;;34.05;16.55;;;;;;;5.91;100.00;98089.09;2082403;28;20129;-83
2021/11/06 14:30:11;;;;;;;34.97;17.05;;;;;;;5.97;100.00;98088.00;2082534;28;20475;-83
2021/11/06 14:31:12;;;;;;;31.50;16.58;;;;;;;5.94;100.00;98082.38;2075122;28;20025;-83
2021/11/06 14:32:12;;;;;;;35.10;16.63;;;;;;;5.89;100.00;98084.03;2069462;28;20031;-83
2021/11/06 14:33:37;;;;;;;32.67;17.27;;;;;;;5.86;100.00;98078.34;2075162;28;20045;-83
2021/11/06 14:34:38;;;;;;;31.67;16.25;;;;;;;5.82;100.00;98083.47;2083990;28;20251;-83
2021/11/06 14:35:38;;;;;;;33.30;16.45;;;;;;;5.81;100.00;98083.75;2090032;28;20025;-83
2021/11/06 14:36:39;;;;;;;32.25;16.73;;;;;;;5.81;100.00;98079.19;2078757;28;20397;-83
2021/11/06 14:37:39;;;;;;;33.40;16.57;;;;;;;5.86;100.00;98087.22;2075208;28;20033;-83
2021/11/06 14:38:46;;;;;;;30.00;15.63;;;;;;;5.78;100.00;98077.03;2074670;28;20550;-83
2021/11/06 14:39:55;;;;;;;30.67;15.70;;;;;;;5.73;100.00;98079.72;2080217;28;20112;-83
2021/11/06 14:41:04;;;;;;;32.92;15.75;;;;;;;5.67;100.00;98075.47;2090620;28;20029;-84
2021/11/06 14:42:06;;;;;;;32.45;15.13;;;;;;;5.67;100.00;98071.97;2085457;28;20109;-82
2021/11/06 14:43:08;;;;;;;32.15;15.45;;;;;;;5.61;100.00;98073.06;2071926;28;20061;-82
2021/11/06 14:44:10;;;;;;;32.00;15.63;;;;;;;5.59;100.00;98072.53;2074209;28;20105;-83
2021/11/06 14:45:21;;;;;;;29.45;14.77;;;;;;;5.54;100.00;98059.91;2090756;28;20029;-82
2021/11/06 14:46:22;;;;;;;31.40;15.20;;;;;;;5.51;100.00;98063.13;2082811;28;20486;-82
2021/11/06 14:47:26;;;;;;;30.20;15.50;;;;;;;5.49;100.00;98071.47;2075569;28;20450;-85
2021/11/06 14:48:28;;;;;;;30.25;15.02;;;;;;;5.45;100.00;98065.03;2074683;28;20255;-81
2021/11/06 14:49:34;;;;;;;29.45;14.75;;;;;;;5.43;100.00;98059.13;2074782;28;20030;-80
2021/11/06 14:50:38;;;;;;;28.38;14.38;;;;;;;5.41;100.00;98058.59;2070948;28;20120;-81
2021/11/06 14:52:00;;;;;;;33.08;16.20;;;;;;;5.40;100.00;98059.66;2076436;28;20408;-81
2021/11/06 14:53:16;;;;;;;30.38;15.15;;;;;;;5.45;100.00;98061.53;2082365;28;20503;-81
2021/11/06 14:54:16;;;;;;;31.58;15.30;;;;;;;5.44;100.00;98062.63;2081633;28;20026;-81
2021/11/06 14:55:22;;;;;;;31.10;16.13;;;;;;;5.35;100.00;98061.56;2082519;28;20030;-81
2021/11/06 14:56:42;;;;;;;29.25;15.45;;;;;;;5.26;100.00;98052.47;2077939;28;20373;-82
2021/11/06 14:57:47;;;;;;;29.83;14.95;;;;;;;5.29;100.00;98059.94;2086639;28;20021;-81
2021/11/06 14:58:52;;;;;;;29.83;14.48;;;;;;;5.26;100.00;98058.59;2074256;28;20030;-81
2021/11/06 15:00:02;;;;;;;29.90;15.77;;;;;;;5.15;100.00;98058.91;2082856;28;20037;-81
2021/11/06 15:01:03;;;;;;;29.88;14.93;;;;;;;5.21;100.00;98057.81;2089391;28;20082;-81
2021/11/06 15:02:03;;;;;;;32.43;16.43;;;;;;;5.15;100.00;98054.34;2076515;28;20026;-81
2021/11/06 15:03:15;;;;;;;30.93;15.83;;;;;;;5.14;100.00;98052.72;2070810;28;20025;-80
2021/11/06 15:04:16;;;;;;;32.13;15.55;;;;;;;5.13;100.00;98054.59;2077880;28;20091;-81
2021/11/06 15:05:26;;;;;;;32.10;15.57;;;;;;;5.08;100.00;98051.94;2081957;28;20139;-81
2021/11/06 15:06:28;;;;;;;32.28;15.13;;;;;;;5.07;100.00;98062.91;2076487;28;20266;-82
2021/11/06 15:07:32;;;;;;;31.17;15.65;;;;;;;5.09;100.00;98052.72;2081141;28;20030;-83
2021/11/06 15:08:33;;;;;;;33.22;16.58;;;;;;;5.08;100.00;98054.59;2078320;28;20108;-82
2021/11/06 15:09:33;;;;;;;30.40;16.00;;;;;;;5.10;100.00;98051.66;2081307;28;20132;-82
2021/11/06 15:10:35;;;;;;;31.23;15.77;;;;;;;5.06;100.00;98048.69;2081326;28;20025;-82
2021/11/06 15:11:35;;;;;;;30.20;16.13;;;;;;;5.06;100.00;98042.53;2080186;28;20117;-82
2021/11/06 15:12:36;;;;;;;34.23;17.03;;;;;;;5.03;100.00;98049.25;2073809;28;20029;-82
2021/11/06 15:13:36;;;;;;;33.97;16.90;;;;;;;5.04;100.00;98042.78;2072660;28;20029;-82
2021/11/06 15:14:37;;;;;;;32.43;16.00;;;;;;;4.99;100.00;98052.72;2066916;28;20077;-82
2021/11/06 15:15:38;;;;;;;36.10;17.75;;;;;;;4.97;100.00;98057.56;2065745;28;20100;-81
2021/11/06 15:16:39;;;;;;;35.60;17.17;;;;;;;4.92;100.00;98058.38;2072598;28;20045;-82
2021/11/06 15:17:40;;;;;;;37.45;17.67;;;;;;;4.89;100.00;98058.91;2082310;28;20033;-81
2021/11/06 15:18:40;;;;;;;36.20;18.33;;;;;;;4.90;100.00;98057.03;2079685;28;20040;-81
2021/11/06 15:19:41;;;;;;;36.25;17.58;;;;;;;4.95;100.00;98051.66;2073414;28;20145;-81
2021/11/06 15:20:43;;;;;;;37.27;17.37;;;;;;;4.88;100.00;98054.63;2073280;28;20030;-81
2021/11/06 15:21:44;;;;;;;40.15;19.25;;;;;;;4.86;100.00;98059.44;2075491;28;20021;-81
2021/11/06 15:22:44;;;;;;;38.05;18.25;;;;;;;4.83;100.00;98051.13;2074784;28;20025;-81
2021/11/06 15:23:44;;;;;;;39.47;18.20;;;;;;;4.70;100.00;98061.31;2072995;28;20026;-81
2021/11/06 15:24:47;;;;;;;42.17;19.45;;;;;;;4.65;100.00;98060.50;2046846;28;20456;-81
2021/11/06 15:25:47;;;;;;;40.10;19.10;;;;;;;4.63;100.00;98060.75;2077304;28;20022;-82
2021/11/06 15:26:48;;;;;;;42.08;19.10;;;;;;;4.70;100.00;98057.81;2083999;28;20467;-81
2021/11/06 15:27:48;;;;;;;37.20;18.13;;;;;;;4.79;100.00;98053.53;2078853;28;20029;-80
2021/11/06 15:28:50;;;;;;;37.83;18.27;;;;;;;4.70;100.00;98057.81;2072343;28;20018;-81
2021/11/06 15:29:53;;;;;;;41.05;18.60;;;;;;;4.68;100.00;98055.41;2077741;28;20041;-82
2021/11/06 15:30:54;;;;;;;39.63;18.95;;;;;;;4.62;100.00;98056.47;2078475;28;20018;-82
2021/11/06 15:31:55;;;;;;;38.00;18.00;;;;;;;4.58;100.00;98057.28;2066325;28;20042;-81
2021/11/06 15:32:56;;;;;;;38.90;18.17;;;;;;;4.56;100.00;98062.09;2066628;28;20026;-81
2021/11/06 15:33:56;;;;;;;37.33;18.45;;;;;;;4.51;100.00;98054.03;2073466;28;20026;-81
2021/11/06 15:34:56;;;;;;;41.30;18.53;;;;;;;4.49;100.00;98059.66;2082005;28;20136;-81
2021/11/06 15:35:57;;;;;;;42.73;19.07;;;;;;;4.46;100.00;98054.84;2081716;28;20370;-81
2021/11/06 15:36:57;;;;;;;42.17;18.50;;;;;;;4.43;100.00;98058.06;2073864;28;20483;-81
2021/11/06 15:37:58;;;;;;;36.30;16.93;;;;;;;4.40;100.00;98057.78;2073869;28;20064;-81
2021/11/06 15:38:59;;;;;;;37.83;17.17;;;;;;;4.37;100.00;98058.31;2094883;28;20020;-84
2021/11/06 15:39:59;;;;;;;38.87;18.13;;;;;;;4.34;100.00;98059.63;2086598;28;20067;-83
2021/11/06 15:41:00;;;;;;;40.77;19.17;;;;;;;4.32;100.00;98053.75;2074767;28;20100;-82
2021/11/06 15:42:01;;;;;;;43.30;18.98;;;;;;;4.27;100.00;98059.88;2072498;28;20025;-82
2021/11/06 15:43:03;;;;;;;37.90;18.17;;;;;;;4.29;100.00;98055.06;2084783;28;20461;-82
2021/11/06 15:44:03;;;;;;;41.78;18.77;;;;;;;4.21;100.00;98058.25;2080778;28;20018;-83
2021/11/06 15:45:05;;;;;;;41.42;19.08;;;;;;;4.09;100.00;98057.69;2073483;28;20041;-83
2021/11/06 15:46:06;;;;;;;45.13;20.05;;;;;;;4.01;100.00;98060.88;2073822;28;20022;-83
2021/11/06 15:47:06;;;;;;;42.30;18.97;;;;;;;3.99;100.00;98056.84;2078571;28;20503;-83
2021/11/06 15:48:09;;;;;;;38.93;18.30;;;;;;;3.97;100.00;98054.44;2073820;28;20075;-83
2021/11/06 15:49:13;;;;;;;41.63;19.27;;;;;;;4.00;100.00;98053.91;2066062;28;20030;-83
2021/11/06 15:50:14;;;;;;;42.10;19.10;;;;;;;3.94;100.00;98053.09;2071626;28;20442;-83
2021/11/06 15:51:24;;;;;;;43.28;19.50;;;;;;;3.96;100.00;98054.72;2082266;28;20048;-83
2021/11/06 15:52:27;;;;;;;43.45;19.35;;;;;;;3.98;100.00;98053.34;2082616;28;20038;-83
2021/11/06 15:53:27;;;;;;;42.07;18.50;;;;;;;3.94;100.00;98053.09;2083193;28;20025;-83
2021/11/06 15:54:28;;;;;;;41.63;18.65;;;;;;;3.90;100.00;98051.22;2077661;28;20292;-82
2021/11/06 15:55:29;;;;;;;43.63;19.67;;;;;;;3.90;100.00;98057.38;2078150;28;20033;-82
2021/11/06 15:56:29;;;;;;;44.70;18.77;;;;;;;3.90;100.00;98051.22;2081686;28;20488;-83
2021/11/06 15:57:30;;;;;;;41.17;19.27;;;;;;;3.84;100.00;98061.06;2074654;28;20057;-83
2021/11/06 15:58:30;;;;;;;43.20;18.45;;;;;;;3.87;100.00;98051.72;2075322;28;20077;-82
2021/11/06 15:59:31;;;;;;;44.10;19.00;;;;;;;3.76;100.00;98058.91;2076556;28;20037;-83
2021/11/06 16:00:31;;;;;;;42.60;18.97;;;;;;;3.73;100.00;98054.06;2079811;28;20029;-82
2021/11/06 16:01:32;;;;;;;44.72;19.73;;;;;;;3.83;100.00;98059.50;2076462;28;20471;-83
2021/11/06 16:02:33;;;;;;;45.40;20.57;;;;;;;3.79;100.00;98055.69;2076474;28;20040;-83
2021/11/06 16:03:33;;;;;;;47.35;19.77;;;;;;;3.77;100.00;98046.31;2092570;28;20067;-83
2021/11/06 16:04:33;;;;;;;43.70;19.33;;;;;;;3.76;100.00;98050.06;2078786;28;20025;-83
2021/11/06 16:05:35;;;;;;;45.00;18.80;;;;;;;3.69;100.00;98044.16;2082405;28;20398;-82
2021/11/06 16:06:36;;;;;;;43.03;19.15;;;;;;;3.68;100.00;98046.03;2074165;28;20067;-82
2021/11/06 16:07:37;;;;;;;45.47;18.73;;;;;;;3.67;100.00;98048.97;2065888;28;20108;-83
2021/11/06 16:08:37;;;;;;;47.08;19.98;;;;;;;3.66;100.00;98042.78;2065915;28;20026;-82
2021/11/06 16:09:38;;;;;;;47.17;19.57;;;;;;;3.64;100.00;98049.47;2081883;28;20021;-82
2021/11/06 16:10:38;;;;;;;48.13;20.83;;;;;;;3.62;100.00;98044.41;2079746;28;20365;-81
2021/11/06 16:11:38;;;;;;;48.73;20.83;;;;;;;3.57;100.00;98046.22;2065864;28;20030;-81
2021/11/06 16:12:39;;;;;;;48.50;20.73;;;;;;;3.59;100.00;98046.78;2070560;28;20476;-81
2021/11/06 16:13:40;;;;;;;47.07;20.60;;;;;;;3.54;100.00;98040.34;2081931;28;20033;-83
2021/11/06 16:14:41;;;;;;;48.55;20.33;;;;;;;3.55;100.00;98038.47;2081821;28;20025;-82
2021/11/06 16:15:43;;;;;;;47.05;20.70;;;;;;;3.53;100.00;98048.63;2072572;28;20033;-82
2021/11/06 16:16:43;;;;;;;47.33;20.30;;;;;;;3.45;100.00;98047.25;2076646;28;20503;-82
2021/11/06 16:17:47;;;;;;;48.77;19.53;;;;;;;3.35;100.00;98046.38;2076092;28;20040;-83
2021/11/06 16:18:50;;;;;;;46.88;19.67;;;;;;;3.36;100.00;98045.31;2073639;28;20451;-82
2021/11/06 16:19:51;;;;;;;44.60;20.08;;;;;;;3.29;100.00;98039.38;2073586;28;20034;-82
2021/11/06 16:20:54;;;;;;;50.43;20.87;;;;;;;3.32;100.00;98046.91;2072959;28;20037;-81
2021/11/06 16:21:54;;;;;;;49.78;20.02;;;;;;;3.34;100.00;98042.09;2081812;28;20112;-82
2021/11/06 16:22:55;;;;;;;50.93;20.57;;;;;;;3.39;100.00;98042.94;2078006;28;20064;-82
2021/11/06 16:23:55;;;;;;;50.70;20.17;;;;;;;3.36;100.00;98038.09;2074691;28;20021;-82
2021/11/06 16:24:55;;;;;;;51.28;20.35;;;;;;;3.36;100.00;98040.75;2081885;28;20025;-82
2021/11/06 16:25:56;;;;;;;47.07;19.63;;;;;;;3.40;100.00;98033.03;2075414;28;20025;-82
2021/11/06 16:26:57;;;;;;;51.90;19.87;;;;;;;3.36;100.00;98034.59;2078739;28;20557;-82
2021/11/06 16:27:58;;;;;;;49.72;19.73;;;;;;;3.34;100.00;98034.84;2077653;28;20033;-83
2021/11/06 16:28:59;;;;;;;57.92;19.65;;;;;;;3.36;100.00;98038.09;2083061;28;20022;-82
2021/11/06 16:29:59;;;;;;;56.58;19.88;;;;;;;3.31;100.00;98037.25;2073689;28;20022;-82
2021/11/06 16:31:00;;;;;;;45.67;17.93;;;;;;;3.41;100.00;98027.41;2073054;28;20030;-82
2021/11/06 16:32:01;;;;;;;53.65;19.05;;;;;;;3.27;100.00;98036.19;2073748;28;20045;-83
2021/11/06 16:33:01;;;;;;;51.07;19.40;;;;;;;3.22;100.00;98038.78;2072952;28;20026;-83
2021/11/06 16:34:01;;;;;;;55.80;19.67;;;;;;;3.37;100.00;98038.88;2076465;28;20119;-83
2021/11/06 16:35:03;;;;;;;64.50;19.53;;;;;;;3.29;100.00;98034.03;2085250;28;20087;-83
2021/11/06 16:36:04;;;;;;;84.15;18.67;;;;;;;3.12;100.00;98036.88;2077390;28;20059;-83
2021/11/06 16:37:04;;;;;;;65.03;19.63;;;;;;;3.09;100.00;98038.19;2067515;28;20530;-83
2021/11/06 16:38:05;;;;;;;123.37;21.07;;;;;;;3.17;100.00;98047.59;2072800;28;20455;-82
2021/11/06 16:39:05;;;;;;;69.88;19.60;;;;;;;3.31;100.00;98045.28;2073204;28;20429;-82
2021/11/06 16:40:08;;;;;;;95.33;21.20;;;;;;;3.06;100.00;98041.38;2080701;28;20021;-82
2021/11/06 16:41:09;;;;;;;58.47;18.83;;;;;;;3.35;100.00;98041.00;2076135;28;20088;-83
2021/11/06 16:42:10;;;;;;;56.05;19.17;;;;;;;3.23;100.00;98030.53;2069613;28;20037;-83
2021/11/06 16:43:11;;;;;;;77.83;19.50;;;;;;;3.18;100.00;98032.34;2072326;28;20022;-83
2021/11/06 16:44:11;;;;;;;121.75;21.55;;;;;;;3.11;100.00;98037.94;2080002;28;20494;-83
2021/11/06 16:45:12;;;;;;;59.63;18.67;;;;;;;3.14;100.00;98034.72;2080460;28;20034;-83
2021/11/06 16:46:13;;;;;;;65.03;19.70;;;;;;;3.26;100.00;98034.56;2072079;28;20056;-83
2021/11/06 16:47:14;;;;;;;61.45;19.27;;;;;;;3.27;100.00;98028.16;2076176;28;20029;-83
2021/11/06 16:48:15;;;;;;;54.37;18.60;;;;;;;3.27;100.00;98033.50;2070197;28;20028;-83
2021/11/06 16:49:15;;;;;;;67.63;20.98;;;;;;;3.19;100.00;98032.09;2073313;28;20314;-83
2021/11/06 16:50:16;;;;;;;55.47;19.37;;;;;;;3.34;100.00;98040.19;2080226;28;20021;-83
2021/11/06 16:51:18;;;;;;;102.97;21.05;;;;;;;3.22;100.00;98036.94;2078866;28;20112;-84
2021/11/06 16:52:19;;;;;;;114.05;19.80;;;;;;;3.09;100.00;98035.50;2073553;28;20377;-86
2021/11/06 16:53:22;;;;;;;115.17;22.83;;;;;;;3.03;100.00;98039.22;2078038;28;20083;-89
2021/11/06 16:54:22;;;;;;;85.53;21.40;;;;;;;3.03;100.00;98036.53;2079531;28;20029;-87
2021/11/06 16:55:22;;;;;;;77.35;21.88;;;;;;;3.05;100.00;98033.63;2079330;28;20043;-85
2021/11/06 16:56:23;;;;;;;94.30;22.10;;;;;;;3.20;100.00;98028.34;2071846;28;20080;-86
2021/11/06 16:57:24;;;;;;;114.00;22.90;;;;;;;3.19;100.00;98034.78;2077223;28;20511;-88
2021/11/06 16:58:25;;;;;;;67.15;20.55;;;;;;;3.16;100.00;98037.97;2081552;28;20297;-87
2021/11/06 16:59:25;;;;;;;97.55;21.52;;;;;;;3.10;100.00;98031.78;2078905;28;20029;-87
2021/11/06 17:00:26;;;;;;;81.93;21.07;;;;;;;3.11;100.00;98037.94;2080081;28;20030;-88
2021/11/06 17:01:27;;;;;;;143.45;24.25;;;;;;;3.10;100.00;98036.31;2081826;28;20451;-87
2021/11/06 17:02:27;;;;;;;126.40;23.92;;;;;;;2.99;100.00;98039.97;2073746;28;20026;-90
2021/11/06 17:03:28;;;;;;;82.97;23.70;;;;;;;3.06;100.00;98036.00;2081823;28;20025;-85
2021/11/06 17:04:28;;;;;;;162.27;26.43;;;;;;;2.97;100.00;98036.75;2079295;28;20030;-88
2021/11/06 17:05:31;;;;;;;146.15;25.00;;;;;;;3.01;100.00;98037.84;2065667;28;20019;-87
2021/11/06 17:06:32;;;;;;;133.32;25.35;;;;;;;2.99;100.00;98031.94;2073883;28;20270;-88
2021/11/06 17:07:35;;;;;;;123.85;26.08;;;;;;;3.02;100.00;98036.78;2073743;28;20026;-88
2021/11/06 17:08:43;;;;;;;102.82;24.08;;;;;;;3.09;100.00;98034.72;2073081;28;20025;-87
2021/11/06 17:10:04;;;;;;;91.88;22.30;;;;;;;3.09;100.00;98040.88;2074758;28;20018;-88
2021/11/06 17:11:04;;;;;;;84.07;20.73;;;;;;;3.05;100.00;98036.28;2076445;28;20080;-88
2021/11/06 17:12:05;;;;;;;96.27;21.03;;;;;;;2.97;100.00;98040.25;2081921;28;20471;-88
2021/11/06 17:13:06;;;;;;;132.73;22.50;;;;;;;2.97;100.00;98048.28;2081916;28;20475;-88
2021/11/06 17:14:06;;;;;;;77.63;21.80;;;;;;;2.98;100.00;98035.72;2073762;28;20029;-88
2021/11/06 17:15:08;;;;;;;87.88;20.17;;;;;;;3.00;100.00;98037.03;2073506;28;20501;-88
2021/11/06 17:16:08;;;;;;;88.88;20.73;;;;;;;2.92;100.00;98034.84;2081702;28;20033;-88
2021/11/06 17:17:08;;;;;;;110.10;21.63;;;;;;;2.88;100.00;98033.75;2081715;28;20022;-88
2021/11/06 17:18:11;;;;;;;92.23;20.97;;;;;;;3.00;100.00;98041.59;2073770;28;20030;-88
2021/11/06 17:19:11;;;;;;;90.60;20.60;;;;;;;2.91;100.00;98035.13;2073744;28;20085;-88
2021/11/06 17:20:11;;;;;;;74.57;18.60;;;;;;;2.93;100.00;98036.47;2073125;28;20488;-88
2021/11/06 17:21:12;;;;;;;103.53;20.90;;;;;;;2.94;100.00;98042.63;2081712;28;20021;-88
2021/11/06 17:22:12;;;;;;;78.37;18.60;;;;;;;2.99;100.00;98040.78;2073479;28;20168;-88
2021/11/06 17:23:13;;;;;;;76.07;18.40;;;;;;;2.97;100.00;98039.44;2081750;28;20017;-87
2021/11/06 17:24:15;;;;;;;84.70;18.60;;;;;;;2.81;100.00;98038.50;2081586;28;20388;-87
2021/11/06 17:25:15;;;;;;;95.07;18.90;;;;;;;2.81;100.00;98040.38;2081843;28;20104;-88
2021/11/06 17:26:17;;;;;;;102.03;20.30;;;;;;;2.78;100.00;98038.19;2081683;28;20017;-88
2021/11/06 17:27:20;;;;;;;127.50;21.25;;;;;;;2.75;100.00;98045.69;2073769;28;20033;-88
2021/11/06 17:28:21;;;;;;;99.70;23.23;;;;;;;2.86;100.00;98043.09;2074007;28;20025;-88
2021/11/06 17:29:21;;;;;;;182.40;24.73;;;;;;;2.88;100.00;98049.00;2073732;28;20026;-88
2021/11/06 17:30:22;;;;;;;92.17;22.23;;;;;;;2.95;100.00;98044.22;2073270;28;20029;-88
2021/11/06 17:31:24;;;;;;;73.13;19.73;;;;;;;3.01;100.00;98048.56;2074115;28;20318;-88
2021/11/06 17:32:24;;;;;;;101.35;20.40;;;;;;;2.98;100.00;98049.06;2073754;28;20029;-88
2021/11/06 17:33:24;;;;;;;58.83;17.97;;;;;;;3.01;100.00;98046.69;2082039;28;20101;-88
2021/11/06 17:34:26;;;;;;;52.80;16.33;;;;;;;2.99;100.00;98042.66;2090479;28;20028;-87
2021/11/06 17:35:27;;;;;;;55.65;17.45;;;;;;;2.99;100.00;98046.13;2081675;28;20060;-88
2021/11/06 17:36:27;;;;;;;54.87;16.87;;;;;;;3.05;100.00;98045.13;2073894;28;20068;-88
2021/11/06 17:37:27;;;;;;;49.20;15.93;;;;;;;3.08;100.00;98043.78;2073432;28;20022;-88
2021/11/06 17:38:29;;;;;;;55.80;16.13;;;;;;;3.09;100.00;98042.72;2073457;28;20022;-87
2021/11/06 17:39:29;;;;;;;52.05;16.35;;;;;;;3.04;100.00;98038.16;2082333;28;20503;-88
2021/11/06 17:40:30;;;;;;;48.47;16.33;;;;;;;3.01;100.00;98041.34;2081760;28;20498;-88
2021/11/06 17:41:30;;;;;;;58.30;17.67;;;;;;;3.01;100.00;98038.66;2082172;28;20017;-88
2021/11/06 17:42:31;;;;;;;81.78;18.85;;;;;;;2.96;100.00;98040.50;2073624;28;20061;-88